Time;durP1;ratioP1;P1;durP2;ratioP2;P2;SDS_P1;SDS_P2;PMS_P1;PMS_P2;Temp;Humidity;BMP_temperature;BMP_pressure;BME280_temperature;BME280_humidity;BME280_pressure;Samples;Min_cycle;Max_cycle;Signal;HPM_P1;HPM_P2
2022/09/03 00:02:14;;;;;;;5.15;4.55;;;;;;;17.87;73.61;94901.59;5054736;28;20197;-73
2022/09/03 00:04:50;;;;;;;5.30;4.53;;;;;;;17.87;73.53;94894.03;5055875;28;20192;-73
2022/09/03 00:07:20;;;;;;;4.53;4.13;;;;;;;17.87;74.29;94901.59;5055007;28;20230;-72
2022/09/03 00:09:49;;;;;;;4.68;4.20;;;;;;;17.87;74.19;94899.59;5055599;28;20236;-72
2022/09/03 00:12:23;;;;;;;4.20;3.90;;;;;;;17.88;74.46;94901.19;5054818;28;20217;-72
2022/09/03 00:14:54;;;;;;;4.32;3.92;;;;;;;17.87;74.41;94894.03;5054775;28;20510;-72
2022/09/03 00:17:23;;;;;;;4.40;4.07;;;;;;;17.86;74.13;94898.00;5054413;28;20622;-72
2022/09/03 00:19:54;;;;;;;4.35;3.95;;;;;;;17.88;74.20;94900.41;5055510;28;20221;-72
2022/09/03 00:22:24;;;;;;;4.90;4.40;;;;;;;17.90;74.33;94892.41;5055278;28;20185;-71
2022/09/03 00:24:52;;;;;;;5.03;4.53;;;;;;;17.92;74.44;94888.00;5054617;28;20201;-72
2022/09/03 00:27:20;;;;;;;5.38;4.20;;;;;;;17.93;74.02;94883.22;5055618;28;20205;-72
2022/09/03 00:29:52;;;;;;;4.85;4.35;;;;;;;17.92;74.39;94890.00;5055486;28;20185;-72
2022/09/03 00:32:25;;;;;;;4.28;3.88;;;;;;;17.88;74.68;94878.88;5054499;28;20209;-71
2022/09/03 00:34:56;;;;;;;4.65;4.25;;;;;;;17.87;74.98;94884.88;5054689;28;20255;-71
2022/09/03 00:37:23;;;;;;;5.85;4.78;;;;;;;17.85;74.54;94876.88;5055388;28;20185;-72
2022/09/03 00:39:50;;;;;;;4.90;4.40;;;;;;;17.82;74.67;94876.91;5054373;28;20224;-71
2022/09/03 00:42:27;;;;;;;5.20;4.70;;;;;;;17.78;74.41;94879.69;5055259;28;20202;-72
2022/09/03 00:45:04;;;;;;;5.00;4.60;;;;;;;17.75;74.55;94880.47;5054997;28;20641;-71
2022/09/03 00:47:40;;;;;;;4.93;4.43;;;;;;;17.75;74.48;94880.47;5054967;28;20182;-71
2022/09/03 00:50:12;;;;;;;4.90;4.50;;;;;;;17.75;74.39;94884.06;5055178;28;20594;-71
2022/09/03 00:52:46;;;;;;;6.70;5.28;;;;;;;17.75;74.93;94889.66;5055301;28;20196;-71
2022/09/03 00:55:21;;;;;;;6.25;5.07;;;;;;;17.75;74.92;94897.19;5054104;28;20613;-71
2022/09/03 00:57:58;;;;;;;4.80;4.40;;;;;;;17.77;74.26;94889.28;5055020;28;20606;-71
2022/09/03 01:00:27;;;;;;;5.07;4.63;;;;;;;17.78;73.99;94890.84;5054827;28;20182;-71
2022/09/03 01:03:06;;;;;;;4.70;4.30;;;;;;;17.77;73.41;94886.47;5054381;28;20288;-72
2022/09/03 01:05:43;;;;;;;4.93;4.50;;;;;;;17.73;73.20;94880.88;5055113;28;20186;-72
2022/09/03 01:08:31;;;;;;;4.68;4.30;;;;;;;17.71;73.59;94891.63;5053729;28;20621;-71
2022/09/03 01:11:09;;;;;;;4.78;4.38;;;;;;;17.69;73.76;94888.47;5054613;28;20190;-72
2022/09/03 01:13:41;;;;;;;4.45;4.05;;;;;;;17.65;73.37;94887.69;5054003;28;20611;-72
2022/09/03 01:16:18;;;;;;;4.50;4.10;;;;;;;17.63;73.00;94886.50;5053700;28;20208;-72
2022/09/03 01:18:53;;;;;;;5.13;4.63;;;;;;;17.59;73.12;94888.50;5089856;28;20213;-72
2022/09/03 01:21:39;;;;;;;4.53;4.13;;;;;;;17.55;72.99;94891.28;5057791;28;20526;-72
2022/09/03 01:24:32;;;;;;;4.88;4.47;;;;;;;17.52;73.25;94898.47;5058966;28;20182;-72
2022/09/03 01:27:09;;;;;;;5.15;4.65;;;;;;;17.51;73.11;94905.25;5058752;28;20205;-72
2022/09/03 01:29:41;;;;;;;4.50;4.10;;;;;;;17.49;73.63;94909.63;5058039;28;20205;-72
2022/09/03 01:32:14;;;;;;;4.68;4.28;;;;;;;17.48;73.81;94919.19;5058706;28;20185;-72
2022/09/03 01:34:50;;;;;;;4.70;4.30;;;;;;;17.44;73.92;94922.00;5058185;28;20198;-72
2022/09/03 01:37:27;;;;;;;4.95;4.55;;;;;;;17.42;73.69;94920.78;5057882;28;20197;-72
2022/09/03 01:40:01;;;;;;;4.65;3.90;;;;;;;17.44;73.99;94919.19;5057822;28;20221;-72
2022/09/03 01:42:35;;;;;;;4.97;4.47;;;;;;;17.43;73.58;94925.97;5041859;28;20197;-72
2022/09/03 01:45:35;;;;;;;4.90;4.28;;;;;;;17.43;73.59;94931.56;5058521;28;20190;-72
2022/09/03 01:48:11;;;;;;;5.10;4.70;;;;;;;17.44;73.81;94924.00;5054620;28;20202;-72
2022/09/03 01:50:46;;;;;;;5.07;4.68;;;;;;;17.45;73.99;94912.41;5057442;28;20644;-72
2022/09/03 01:53:21;;;;;;;4.90;4.20;;;;;;;17.45;74.49;94912.41;5058336;28;20228;-72
2022/09/03 01:56:00;;;;;;;5.03;4.63;;;;;;;17.44;73.99;94910.84;5058024;28;20250;-72
2022/09/03 01:58:32;;;;;;;5.00;4.50;;;;;;;17.43;73.88;94914.84;5057966;28;20213;-72
2022/09/03 02:01:04;;;;;;;4.85;4.30;;;;;;;17.41;73.60;94897.69;5058195;28;20186;-72
2022/09/03 02:03:36;;;;;;;4.95;4.55;;;;;;;17.42;73.59;94904.84;5057120;28;20201;-72
2022/09/03 02:06:05;;;;;;;4.93;4.53;;;;;;;17.44;73.27;94904.47;5057987;28;20241;-72
2022/09/03 02:08:32;;;;;;;4.95;4.55;;;;;;;17.46;73.23;94899.28;5056999;28;20210;-72
2022/09/03 02:11:01;;;;;;;4.88;4.40;;;;;;;17.45;73.08;94904.06;5057145;28;20221;-72
2022/09/03 02:13:32;;;;;;;4.90;4.50;;;;;;;17.41;72.80;94914.41;5057287;28;20194;-72
2022/09/03 02:16:03;;;;;;;4.72;4.32;;;;;;;17.37;72.67;94918.41;5057105;28;20190;-72
2022/09/03 02:18:32;;;;;;;4.75;4.35;;;;;;;17.33;73.04;94910.84;5057877;28;20182;-72
2022/09/03 02:20:59;;;;;;;5.53;4.82;;;;;;;17.33;73.23;94912.84;5057792;28;20178;-73
2022/09/03 02:23:27;;;;;;;5.95;5.40;;;;;;;17.34;73.22;94911.66;5057909;28;20190;-72
2022/09/03 02:25:57;;;;;;;5.22;4.72;;;;;;;17.33;73.26;94904.47;5057675;28;20194;-73
2022/09/03 02:28:24;;;;;;;4.65;4.25;;;;;;;17.35;73.48;94902.06;5057643;28;20609;-72
2022/09/03 02:30:51;;;;;;;5.00;4.60;;;;;;;17.38;73.83;94911.63;5056727;28;20644;-72
2022/09/03 02:33:19;;;;;;;5.47;5.05;;;;;;;17.39;73.39;94924.38;5057818;28;20193;-72
2022/09/03 02:35:47;;;;;;;5.32;4.82;;;;;;;17.38;73.42;94918.00;5057610;28;20197;-72
2022/09/03 02:38:15;;;;;;;5.97;5.40;;;;;;;17.38;73.57;94920.00;5057545;28;20198;-72
2022/09/03 02:40:42;;;;;;;5.00;4.60;;;;;;;17.41;73.40;94920.00;5056771;28;20202;-73
2022/09/03 02:43:13;;;;;;;5.32;4.82;;;;;;;17.40;73.68;94923.19;5056579;28;20209;-72
2022/09/03 02:45:43;;;;;;;5.07;4.57;;;;;;;17.38;73.73;94926.38;5057388;28;20182;-72
2022/09/03 02:48:11;;;;;;;4.93;4.53;;;;;;;17.39;73.43;94933.53;5057395;28;20186;-71
2022/09/03 02:50:42;;;;;;;5.35;4.95;;;;;;;17.44;73.85;94924.78;5057013;28;20196;-71
2022/09/03 02:53:09;;;;;;;5.55;5.05;;;;;;;17.44;73.17;94926.78;5057436;28;20178;-72
2022/09/03 02:55:36;;;;;;;5.72;5.00;;;;;;;17.40;73.46;94935.13;5056415;28;20209;-72
2022/09/03 02:58:04;;;;;;;5.60;5.20;;;;;;;17.42;73.38;94929.16;5057116;28;20190;-71
2022/09/03 03:00:31;;;;;;;5.40;4.93;;;;;;;17.41;73.34;94927.56;5056105;28;20225;-71
2022/09/03 03:02:58;;;;;;;5.47;5.05;;;;;;;17.41;73.26;94922.78;5057172;28;20178;-71
2022/09/03 03:05:30;;;;;;;5.32;4.82;;;;;;;17.40;73.02;94926.78;5055914;28;20214;-72
2022/09/03 03:08:00;;;;;;;5.80;5.22;;;;;;;17.39;73.23;94927.94;5057105;28;20249;-72
2022/09/03 03:10:27;;;;;;;5.55;5.05;;;;;;;17.37;73.18;94930.34;5057010;28;20243;-72
2022/09/03 03:12:54;;;;;;;5.93;5.43;;;;;;;17.39;73.92;94924.38;5055793;28;20201;-72
2022/09/03 03:15:20;;;;;;;6.20;5.60;;;;;;;17.37;73.50;94927.56;5055707;28;20388;-71
2022/09/03 03:17:48;;;;;;;5.15;4.65;;;;;;;17.36;73.52;94919.59;5056096;28;20630;-71
2022/09/03 03:20:15;;;;;;;5.97;5.28;;;;;;;17.34;74.07;94917.22;5056474;28;20253;-71
2022/09/03 03:22:41;;;;;;;5.72;5.22;;;;;;;17.32;73.97;94920.41;5055996;28;20205;-72
2022/09/03 03:25:10;;;;;;;6.07;5.55;;;;;;;17.30;73.94;94922.00;5056759;28;20182;-72
2022/09/03 03:27:41;;;;;;;5.40;4.90;;;;;;;17.31;74.15;94915.22;5056719;28;20197;-72
2022/09/03 03:30:09;;;;;;;5.63;5.13;;;;;;;17.32;74.28;94926.00;5055588;28;20248;-72
2022/09/03 03:32:36;;;;;;;6.38;5.20;;;;;;;17.32;74.32;94928.00;5056196;28;20209;-71
2022/09/03 03:35:05;;;;;;;6.10;5.50;;;;;;;17.31;74.45;94926.38;5056186;28;20186;-71
2022/09/03 03:37:32;;;;;;;5.72;5.13;;;;;;;17.28;74.71;94922.41;5055349;28;20197;-71
2022/09/03 03:39:59;;;;;;;6.20;5.60;;;;;;;17.28;74.39;94925.19;5055011;28;20221;-72
2022/09/03 03:42:27;;;;;;;6.03;5.53;;;;;;;17.26;74.80;94930.38;5054834;28;20213;-72
2022/09/03 03:44:54;;;;;;;5.60;5.10;;;;;;;17.22;74.49;94932.38;5055796;28;20189;-72
2022/09/03 03:47:21;;;;;;;5.75;5.25;;;;;;;17.19;75.17;94924.81;5056061;28;20561;-71
2022/09/03 03:49:48;;;;;;;6.50;5.07;;;;;;;17.18;75.26;94928.00;5055855;28;20209;-71
2022/09/03 03:52:14;;;;;;;5.63;5.10;;;;;;;17.18;74.91;94919.63;5056091;28;20203;-71
2022/09/03 03:54:41;;;;;;;5.93;5.40;;;;;;;17.20;75.27;94925.59;5055209;28;20190;-71
2022/09/03 03:57:08;;;;;;;5.65;4.97;;;;;;;17.21;75.12;94928.00;5055887;28;20535;-72
2022/09/03 03:59:36;;;;;;;5.95;5.45;;;;;;;17.22;74.82;94929.59;5055104;28;20225;-72
2022/09/03 04:02:03;;;;;;;5.45;4.95;;;;;;;17.23;74.78;94942.31;5055019;28;20610;-71
2022/09/03 04:04:30;;;;;;;6.07;5.30;;;;;;;17.21;74.66;94932.75;5055950;28;20186;-71
2022/09/03 04:06:56;;;;;;;5.88;5.38;;;;;;;17.21;75.04;94930.78;5055899;28;20240;-71
2022/09/03 04:09:23;;;;;;;5.72;5.15;;;;;;;17.23;74.93;94933.94;5055803;28;20201;-72
2022/09/03 04:11:50;;;;;;;5.95;5.45;;;;;;;17.20;75.00;94928.38;5055824;28;20190;-72
2022/09/03 04:14:17;;;;;;;6.18;5.60;;;;;;;17.19;75.23;94924.00;5054556;28;20259;-72
2022/09/03 04:16:46;;;;;;;6.15;5.50;;;;;;;17.21;74.78;94925.22;5056090;28;20213;-72
2022/09/03 04:19:13;;;;;;;5.70;5.20;;;;;;;17.20;74.83;94933.94;5055038;28;20209;-72
2022/09/03 04:21:40;;;;;;;5.85;5.22;;;;;;;17.17;74.74;94934.75;5055558;28;20189;-72
2022/09/03 04:24:07;;;;;;;6.00;5.35;;;;;;;17.17;74.62;94929.97;5055508;28;20197;-71
2022/09/03 04:26:34;;;;;;;5.47;4.82;;;;;;;17.17;74.95;94931.97;5055243;28;20625;-71
2022/09/03 04:29:04;;;;;;;6.10;5.60;;;;;;;17.16;74.59;94938.72;5055262;28;20192;-72
2022/09/03 04:31:31;;;;;;;6.40;5.82;;;;;;;17.14;74.83;94933.56;5054417;28;20206;-72
2022/09/03 04:33:58;;;;;;;6.40;5.80;;;;;;;17.13;74.71;94948.69;5054135;28;20212;-73
2022/09/03 04:36:27;;;;;;;6.13;5.63;;;;;;;17.15;74.60;94956.66;5055150;28;20201;-71
2022/09/03 04:38:55;;;;;;;6.32;5.72;;;;;;;17.15;74.89;94957.44;5055462;28;20602;-71
2022/09/03 04:41:24;;;;;;;6.15;5.55;;;;;;;17.18;75.19;94958.66;5054576;28;20201;-72
2022/09/03 04:43:52;;;;;;;6.85;6.15;;;;;;;17.14;74.99;94955.88;5055670;28;20182;-71
2022/09/03 04:46:20;;;;;;;6.40;5.90;;;;;;;17.16;74.92;94970.19;5055297;28;20196;-71
2022/09/03 04:48:49;;;;;;;7.28;6.28;;;;;;;17.17;74.85;94977.34;5054851;28;20224;-71
2022/09/03 04:51:19;;;;;;;5.78;5.18;;;;;;;17.17;74.64;94968.97;5055540;28;20198;-71
2022/09/03 04:53:47;;;;;;;5.90;5.30;;;;;;;17.17;74.29;94982.13;5054112;28;20198;-71
2022/09/03 04:56:17;;;;;;;6.18;5.57;;;;;;;17.17;74.19;94987.69;5055175;28;20186;-71
2022/09/03 04:58:44;;;;;;;5.55;5.05;;;;;;;17.15;74.00;94987.31;5054888;28;20510;-72
2022/09/03 05:01:13;;;;;;;5.18;4.78;;;;;;;17.17;73.93;94987.69;5054570;28;20663;-72
2022/09/03 05:03:39;;;;;;;5.63;5.07;;;;;;;17.17;73.87;94991.28;5054162;28;20213;-72
2022/09/03 05:06:07;;;;;;;6.03;5.43;;;;;;;17.14;73.62;94986.53;5054790;28;20245;-71
2022/09/03 05:08:36;;;;;;;6.20;5.15;;;;;;;17.14;73.93;94994.06;5055107;28;20178;-71
2022/09/03 05:11:03;;;;;;;5.53;5.03;;;;;;;17.13;73.66;95001.63;5053897;28;20311;-71
2022/09/03 05:13:30;;;;;;;5.70;5.10;;;;;;;17.13;73.95;94990.47;5054774;28;20598;-71
2022/09/03 05:15:59;;;;;;;5.53;5.03;;;;;;;17.14;74.15;94994.06;5054016;28;20202;-72
2022/09/03 05:18:26;;;;;;;5.30;4.80;;;;;;;17.13;74.63;94996.06;5054979;28;20194;-72
2022/09/03 05:20:58;;;;;;;5.30;4.80;;;;;;;17.14;74.15;94999.63;5054558;28;20218;-72
2022/09/03 05:23:25;;;;;;;5.50;5.00;;;;;;;17.14;74.62;94997.66;5055072;28;20209;-72
2022/09/03 05:25:58;;;;;;;7.35;5.57;;;;;;;17.12;74.25;95000.03;5054104;28;20231;-71
2022/09/03 05:28:26;;;;;;;5.28;4.78;;;;;;;17.11;73.76;94998.47;5054082;28;20240;-71
2022/09/03 05:31:00;;;;;;;5.38;4.88;;;;;;;17.12;73.62;95002.03;5055093;28;20186;-71
2022/09/03 05:33:27;;;;;;;5.30;4.90;;;;;;;17.11;73.30;94989.31;5053700;28;20193;-70
2022/09/03 05:35:54;;;;;;;5.15;4.75;;;;;;;17.16;73.30;95000.03;5054514;28;20202;-70
2022/09/03 05:38:21;;;;;;;5.60;5.10;;;;;;;17.19;73.44;95000.03;5054589;28;20578;-71
2022/09/03 05:40:48;;;;;;;4.88;4.47;;;;;;;17.19;73.42;95002.84;5053731;28;20221;-71
2022/09/03 05:43:17;;;;;;;5.68;5.18;;;;;;;17.20;73.41;95010.00;5054411;28;20201;-71
2022/09/03 05:45:43;;;;;;;7.35;6.65;;;;;;;17.25;73.31;95000.47;5055491;28;20201;-72
2022/09/03 05:48:10;;;;;;;6.60;6.00;;;;;;;17.27;73.70;95006.41;5055486;28;20186;-71
2022/09/03 05:50:37;;;;;;;5.38;4.93;;;;;;;17.27;73.14;95009.19;5054696;28;20182;-72
2022/09/03 05:53:04;;;;;;;5.57;5.07;;;;;;;17.27;72.49;95007.22;5054737;28;20190;-72
2022/09/03 05:55:31;;;;;;;5.25;4.78;;;;;;;17.26;72.02;95008.41;5053783;28;20194;-72
2022/09/03 05:57:57;;;;;;;4.95;4.55;;;;;;;17.24;71.97;95007.22;5054268;28;20198;-72
2022/09/03 06:00:26;;;;;;;5.10;4.60;;;;;;;17.25;72.81;95012.41;5054670;28;20202;-72
2022/09/03 06:02:53;;;;;;;5.53;5.13;;;;;;;17.27;72.80;95020.34;5087325;28;20201;-72
2022/09/03 06:05:20;;;;;;;5.32;4.93;;;;;;;17.28;72.63;95017.19;5056520;28;20202;-72
2022/09/03 06:07:48;;;;;;;5.20;4.72;;;;;;;17.31;72.50;95007.22;5057152;28;20237;-72
2022/09/03 06:10:16;;;;;;;4.57;4.28;;;;;;;17.35;72.45;95015.56;5057245;28;20201;-71
2022/09/03 06:12:43;;;;;;;5.38;4.93;;;;;;;17.38;71.86;95015.56;5091204;28;20289;-71
2022/09/03 06:15:11;;;;;;;5.30;4.80;;;;;;;17.40;72.01;95012.41;5058068;28;20184;-71
2022/09/03 06:17:40;;;;;;;5.10;4.70;;;;;;;17.39;72.10;95014.38;5058132;28;20293;-71
2022/09/03 06:20:08;;;;;;;5.70;5.20;;;;;;;17.39;71.90;95008.00;5057926;28;20221;-71
2022/09/03 06:22:34;;;;;;;5.60;5.10;;;;;;;17.46;72.37;95013.59;5058211;28;20193;-71
2022/09/03 06:25:01;;;;;;;5.35;4.90;;;;;;;17.51;72.64;95013.19;5056920;28;20198;-72
2022/09/03 06:27:29;;;;;;;5.53;5.13;;;;;;;17.55;72.20;95017.56;5057052;28;20215;-72
2022/09/03 06:29:57;;;;;;;5.72;5.22;;;;;;;17.58;72.00;95016.00;5056835;28;20200;-72
2022/09/03 06:32:24;;;;;;;5.38;4.97;;;;;;;17.57;72.05;95011.59;5057529;28;20528;-71
2022/09/03 06:34:52;;;;;;;6.00;5.50;;;;;;;17.61;72.46;95022.72;5057140;28;20212;-72
2022/09/03 06:37:19;;;;;;;5.38;4.93;;;;;;;17.62;71.90;95024.34;5057074;28;20201;-72
2022/09/03 06:39:46;;;;;;;5.18;4.78;;;;;;;17.74;71.71;95010.78;5057259;28;20197;-71
2022/09/03 06:42:13;;;;;;;5.35;4.78;;;;;;;17.83;71.30;95023.53;5057543;28;20267;-71
2022/09/03 06:44:40;;;;;;;5.57;5.10;;;;;;;17.87;71.50;95022.34;5056862;28;20197;-72
2022/09/03 06:47:07;;;;;;;5.57;5.07;;;;;;;17.91;71.05;95023.16;5057499;28;20248;-71
2022/09/03 06:49:34;;;;;;;5.45;4.90;;;;;;;17.96;70.46;95027.50;5057175;28;20209;-72
2022/09/03 06:52:03;;;;;;;5.80;5.30;;;;;;;17.96;70.82;95022.72;5057358;28;20194;-71
2022/09/03 06:54:29;;;;;;;6.13;5.53;;;;;;;17.98;70.85;95031.50;5056133;28;20206;-71
2022/09/03 06:56:57;;;;;;;6.20;5.70;;;;;;;17.96;70.48;95033.88;5057328;28;20201;-72
2022/09/03 06:59:24;;;;;;;6.25;5.72;;;;;;;17.95;70.55;95032.31;5057240;28;20268;-71
2022/09/03 07:01:51;;;;;;;5.30;4.90;;;;;;;17.93;70.29;95036.69;5056204;28;20550;-71
2022/09/03 07:04:18;;;;;;;6.65;6.05;;;;;;;17.91;70.53;95031.50;5056267;28;20210;-71
2022/09/03 07:06:45;;;;;;;6.00;5.50;;;;;;;17.91;71.24;95039.09;5055755;28;20252;-71
2022/09/03 07:09:14;;;;;;;6.47;5.88;;;;;;;17.92;70.68;95038.69;5056792;28;20590;-71
2022/09/03 07:11:45;;;;;;;5.88;5.38;;;;;;;17.91;70.49;95037.09;5057065;28;20197;-72
2022/09/03 07:14:12;;;;;;;5.93;5.43;;;;;;;17.87;70.77;95041.09;5057028;28;20277;-72
2022/09/03 07:16:40;;;;;;;5.55;5.15;;;;;;;17.83;70.30;95048.66;5056217;28;20186;-71
2022/09/03 07:19:08;;;;;;;5.85;5.35;;;;;;;17.83;70.40;95051.44;5057026;28;20285;-71
2022/09/03 07:21:36;;;;;;;6.20;5.70;;;;;;;17.86;70.83;95045.06;5055625;28;20216;-71
2022/09/03 07:24:05;;;;;;;6.10;5.60;;;;;;;17.91;70.47;95041.88;5056794;28;20190;-72
2022/09/03 07:26:34;;;;;;;6.15;5.45;;;;;;;17.92;70.45;95051.84;5056366;28;20201;-72
2022/09/03 07:29:01;;;;;;;6.00;5.50;;;;;;;17.90;69.83;95052.25;5056025;28;20502;-70
2022/09/03 07:31:30;;;;;;;5.40;5.00;;;;;;;17.91;69.89;95056.63;5055503;28;20189;-71
2022/09/03 07:33:57;;;;;;;6.10;5.60;;;;;;;17.92;70.17;95057.41;5055367;28;20660;-71
2022/09/03 07:36:26;;;;;;;6.20;5.60;;;;;;;17.94;70.43;95061.41;5056801;28;20190;-71
2022/09/03 07:38:55;;;;;;;6.70;6.10;;;;;;;17.96;70.68;95061.00;5056485;28;20190;-71
2022/09/03 07:41:23;;;;;;;7.22;6.15;;;;;;;17.96;70.22;95063.78;5056398;28;20202;-71
2022/09/03 07:43:53;;;;;;;6.15;5.65;;;;;;;17.95;70.20;95065.78;5055551;28;20205;-71
2022/09/03 07:46:22;;;;;;;7.00;6.40;;;;;;;17.96;70.10;95061.00;5055395;28;20533;-71
2022/09/03 07:48:49;;;;;;;5.47;5.07;;;;;;;17.93;69.59;95064.59;5056339;28;20186;-71
2022/09/03 07:51:17;;;;;;;5.93;5.43;;;;;;;17.96;69.90;95063.78;5055962;28;20618;-71
2022/09/03 07:53:44;;;;;;;5.25;4.85;;;;;;;18.00;69.76;95061.78;5055052;28;20202;-71
2022/09/03 07:56:11;;;;;;;5.80;5.30;;;;;;;18.04;70.53;95068.16;5055791;28;20188;-71
2022/09/03 07:58:39;;;;;;;5.53;5.03;;;;;;;18.10;70.65;95060.19;5088549;28;20271;-71
2022/09/03 08:01:09;;;;;;;5.78;5.28;;;;;;;18.17;71.11;95066.53;5055232;28;20272;-72
2022/09/03 08:03:37;;;;;;;6.05;5.55;;;;;;;18.22;70.59;95066.13;5056253;28;20182;-72
2022/09/03 08:06:05;;;;;;;6.05;5.53;;;;;;;18.27;69.65;95067.72;5056163;28;20264;-71
2022/09/03 08:08:34;;;;;;;5.40;5.00;;;;;;;18.33;69.78;95074.47;5056508;28;20641;-71
2022/09/03 08:11:08;;;;;;;5.72;5.22;;;;;;;18.43;70.33;95064.47;5055715;28;20196;-71
2022/09/03 08:13:35;;;;;;;5.78;5.22;;;;;;;18.54;70.11;95065.25;5055255;28;20206;-71
2022/09/03 08:16:04;;;;;;;5.90;5.40;;;;;;;18.63;70.33;95070.41;5055695;28;20178;-71
2022/09/03 08:18:36;;;;;;;5.45;4.97;;;;;;;18.62;69.50;95071.59;5055508;28;20261;-72
2022/09/03 08:21:05;;;;;;;6.30;5.70;;;;;;;18.60;69.08;95068.41;5055187;28;20226;-72
2022/09/03 08:23:33;;;;;;;6.07;5.57;;;;;;;18.59;68.81;95072.41;5055807;28;20186;-72
2022/09/03 08:26:00;;;;;;;7.28;6.63;;;;;;;18.55;67.95;95068.81;5054535;28;20243;-71
2022/09/03 08:28:27;;;;;;;5.10;4.70;;;;;;;18.52;67.91;95059.28;5055518;28;20225;-71
2022/09/03 08:30:53;;;;;;;5.68;5.28;;;;;;;18.59;68.19;95061.22;5054823;28;20194;-72
2022/09/03 08:33:35;;;;;;;5.22;4.82;;;;;;;18.66;68.11;95066.78;5054911;28;20205;-71
2022/09/03 08:36:05;;;;;;;5.78;5.30;;;;;;;18.67;67.96;95063.59;5055455;28;20186;-71
2022/09/03 08:38:32;;;;;;;6.18;5.68;;;;;;;18.74;68.13;95062.81;5055205;28;20490;-71
2022/09/03 08:41:04;;;;;;;5.60;5.20;;;;;;;18.77;67.71;95053.59;5054579;28;20244;-72
2022/09/03 08:43:32;;;;;;;5.72;5.32;;;;;;;18.81;67.69;95061.97;5055063;28;20633;-72
2022/09/03 08:45:58;;;;;;;5.85;5.35;;;;;;;18.88;67.67;95059.94;5055437;28;20196;-72
2022/09/03 08:48:27;;;;;;;5.13;4.72;;;;;;;18.95;67.87;95059.09;5055380;28;20283;-71
2022/09/03 08:50:58;;;;;;;5.82;5.32;;;;;;;18.93;67.04;95062.31;5054133;28;20197;-71
2022/09/03 08:53:33;;;;;;;5.40;5.00;;;;;;;19.04;66.73;95061.47;5054617;28;20228;-72
2022/09/03 08:56:03;;;;;;;5.75;5.18;;;;;;;19.16;67.13;95061.78;5055247;28;20192;-72
2022/09/03 08:58:33;;;;;;;5.80;5.30;;;;;;;19.29;66.92;95062.09;5055223;28;20198;-72
2022/09/03 09:01:04;;;;;;;5.95;5.45;;;;;;;19.45;66.68;95050.41;5055014;28;20264;-71
2022/09/03 09:03:42;;;;;;;5.97;5.47;;;;;;;19.57;65.72;95063.91;5054230;28;20190;-71
2022/09/03 09:06:16;;;;;;;6.00;5.50;;;;;;;19.63;65.81;95065.06;5054821;28;20271;-71
2022/09/03 09:08:52;;;;;;;5.95;5.45;;;;;;;19.69;66.79;95066.22;5055258;28;20205;-71
2022/09/03 09:11:29;;;;;;;5.60;5.20;;;;;;;19.70;65.69;95064.22;5055881;28;20193;-72
2022/09/03 09:14:00;;;;;;;5.38;4.97;;;;;;;19.66;66.07;95066.25;5037738;28;20209;-71
2022/09/03 09:16:35;;;;;;;5.65;5.15;;;;;;;19.63;65.38;95073.47;5055055;28;20202;-72
2022/09/03 09:19:10;;;;;;;5.47;5.07;;;;;;;19.55;65.62;95066.31;5038612;28;20198;-71
2022/09/03 09:21:44;;;;;;;5.63;5.13;;;;;;;19.50;65.68;95072.34;5054342;28;20213;-71
2022/09/03 09:24:22;;;;;;;5.30;4.80;;;;;;;19.49;65.95;95070.75;5055481;28;20188;-71
2022/09/03 09:26:49;;;;;;;5.57;5.00;;;;;;;19.49;65.72;95071.53;5055465;28;20282;-71
2022/09/03 09:29:16;;;;;;;4.78;4.38;;;;;;;19.49;66.12;95065.94;5055012;28;20197;-71
2022/09/03 09:31:44;;;;;;;5.50;5.10;;;;;;;19.51;65.87;95070.34;5055169;28;20178;-71
2022/09/03 09:34:11;;;;;;;5.35;4.95;;;;;;;19.49;65.33;95067.94;5053844;28;20189;-71
2022/09/03 09:36:43;;;;;;;5.97;5.47;;;;;;;19.50;65.88;95063.97;5054556;28;20194;-72
2022/09/03 09:39:10;;;;;;;4.75;4.45;;;;;;;19.51;65.98;95071.13;5055817;28;20613;-71
2022/09/03 09:41:40;;;;;;;5.47;5.07;;;;;;;19.57;66.30;95063.09;5059443;28;20217;-71
2022/09/03 09:44:07;;;;;;;5.50;5.00;;;;;;;19.64;66.46;95074.25;5059485;28;20193;-70
2022/09/03 09:46:37;;;;;;;5.32;4.70;;;;;;;19.73;65.87;95076.59;5059648;28;20205;-70
2022/09/03 09:49:09;;;;;;;6.07;5.45;;;;;;;19.79;66.36;95069.34;5058408;28;20294;-72
2022/09/03 09:51:36;;;;;;;5.63;5.15;;;;;;;19.76;66.00;95073.00;5058908;28;20190;-72
2022/09/03 09:54:17;;;;;;;5.68;5.18;;;;;;;19.87;66.37;95068.88;5058870;28;20182;-72
2022/09/03 09:56:46;;;;;;;5.40;5.05;;;;;;;19.96;65.39;95065.59;5057817;28;20210;-72
2022/09/03 09:59:14;;;;;;;5.50;5.10;;;;;;;20.18;65.46;95077.38;5057897;28;20190;-72
2022/09/03 10:01:41;;;;;;;5.70;5.30;;;;;;;20.39;63.77;95076.38;5057457;28;20236;-71
2022/09/03 10:04:10;;;;;;;5.80;5.30;;;;;;;20.51;63.22;95075.06;5058261;28;20186;-71
2022/09/03 10:07:01;;;;;;;6.10;5.50;;;;;;;20.66;64.17;95071.72;5058129;28;20259;-71
2022/09/03 10:09:29;;;;;;;5.78;5.35;;;;;;;20.83;63.46;95071.91;5058261;28;20218;-71
2022/09/03 10:12:05;;;;;;;5.40;5.00;;;;;;;21.04;62.99;95065.25;5057120;28;20198;-71
2022/09/03 10:14:36;;;;;;;5.88;5.38;;;;;;;21.22;60.66;95070.59;5058747;28;20196;-71
2022/09/03 10:17:10;;;;;;;5.80;5.30;;;;;;;21.25;61.20;95061.34;5059188;28;20182;-71
2022/09/03 10:20:25;;;;;;;5.55;5.15;;;;;;;21.38;60.41;95060.34;5058098;28;20193;-71
2022/09/03 10:22:30;;;;;;;5.60;5.10;;;;;;;21.49;60.23;95063.00;5058143;28;20224;-72
2022/09/03 10:24:59;;;;;;;5.90;5.47;;;;;;;21.58;60.25;95060.47;5060290;28;20539;-72
2022/09/03 10:27:28;;;;;;;6.55;5.95;;;;;;;21.70;60.66;95066.72;5059018;28;20205;-71
2022/09/03 10:29:54;;;;;;;5.20;4.80;;;;;;;21.87;59.72;95063.63;5060439;28;20265;-71
2022/09/03 10:32:29;;;;;;;5.55;5.15;;;;;;;21.94;59.60;95059.91;5060618;28;20201;-71
2022/09/03 10:35:07;;;;;;;6.15;5.63;;;;;;;22.03;59.06;95065.75;5060271;28;20211;-71
2022/09/03 10:37:39;;;;;;;5.20;4.80;;;;;;;22.01;57.37;95062.59;5059832;28;20197;-71
2022/09/03 10:40:16;;;;;;;5.82;5.32;;;;;;;22.08;58.48;95061.66;5060717;28;20598;-71
2022/09/03 10:42:48;;;;;;;6.20;5.70;;;;;;;22.17;57.97;95070.34;5059713;28;20228;-71
2022/09/03 10:45:22;;;;;;;5.53;5.13;;;;;;;22.21;57.11;95071.09;5058943;28;20259;-71
2022/09/03 10:48:06;;;;;;;5.40;5.00;;;;;;;22.19;56.68;95067.94;5058354;28;20222;-71
2022/09/03 10:50:42;;;;;;;5.43;5.03;;;;;;;22.23;57.24;95060.22;5058649;28;20181;-71
2022/09/03 10:53:14;;;;;;;5.85;4.88;;;;;;;22.33;57.78;95064.84;5057335;28;20193;-71
2022/09/03 10:55:48;;;;;;;5.40;5.00;;;;;;;22.54;57.08;95066.44;5056346;28;20202;-72
2022/09/03 10:58:48;;;;;;;5.40;5.00;;;;;;;22.67;56.38;95065.84;5057682;28;20197;-71
2022/09/03 11:01:21;;;;;;;5.40;5.00;;;;;;;22.76;56.04;95068.84;5056635;28;20209;-71
2022/09/03 11:03:50;;;;;;;5.30;4.88;;;;;;;22.82;55.78;95064.31;5056518;28;20209;-71
2022/09/03 11:06:21;;;;;;;5.40;5.00;;;;;;;22.85;56.10;95063.44;5056416;28;20658;-71
2022/09/03 11:08:53;;;;;;;5.07;4.68;;;;;;;22.87;55.71;95055.34;5056952;28;20202;-72
2022/09/03 11:11:25;;;;;;;5.53;5.13;;;;;;;22.88;55.89;95067.44;5057544;28;20209;-71
2022/09/03 11:13:56;;;;;;;5.43;4.95;;;;;;;22.88;55.45;95068.22;5057626;28;20197;-71
2022/09/03 11:16:26;;;;;;;5.43;5.03;;;;;;;22.85;55.79;95060.63;5057178;28;20212;-71
2022/09/03 11:18:55;;;;;;;5.40;5.00;;;;;;;22.90;55.63;95057.31;5057008;28;20621;-71
2022/09/03 11:21:25;;;;;;;5.57;5.07;;;;;;;22.96;56.48;95064.06;5056817;28;20535;-72
2022/09/03 11:23:59;;;;;;;5.93;5.43;;;;;;;22.95;55.90;95064.47;5055997;28;20205;-71
2022/09/03 11:26:26;;;;;;;5.85;5.45;;;;;;;22.95;56.47;95073.72;5056654;28;20197;-71
2022/09/03 11:28:58;;;;;;;5.35;4.95;;;;;;;22.99;54.82;95059.59;5057048;28;20208;-71
2022/09/03 11:31:33;;;;;;;5.13;4.72;;;;;;;23.05;55.49;95060.66;5056847;28;20178;-71
2022/09/03 11:34:06;;;;;;;5.07;4.68;;;;;;;23.12;55.01;95054.06;5056666;28;20207;-71
2022/09/03 11:36:34;;;;;;;5.28;4.78;;;;;;;23.16;54.93;95060.41;5056454;28;20195;-71
2022/09/03 11:39:15;;;;;;;5.28;4.78;;;;;;;23.19;55.00;95057.53;5055687;28;20197;-71
2022/09/03 11:41:42;;;;;;;5.28;4.82;;;;;;;23.22;54.92;95050.25;5055495;28;20308;-71
2022/09/03 11:44:17;;;;;;;4.97;4.53;;;;;;;23.25;54.42;95044.53;5056914;28;20178;-71
2022/09/03 11:46:54;;;;;;;4.90;4.50;;;;;;;23.29;54.41;95050.09;5056960;28;20204;-70
2022/09/03 11:49:28;;;;;;;5.57;5.07;;;;;;;23.32;54.37;95054.84;5058323;28;20189;-70